sensor_id;sensor_type;location;lat;lon;timestamp;temperature;humidity
2363;DHT22;64265;51.664;7.626;2024-03-23T00:55:35;21.30;78.90
2363;DHT22;64265;51.664;7.626;2024-03-23T00:58:02;21.30;79.10
2363;DHT22;64265;51.664;7.626;2024-03-23T01:00:28;21.20;79.00
2363;DHT22;64265;51.664;7.626;2024-03-23T01:02:55;21.20;79.10
2363;DHT22;64265;51.664;7.626;2024-03-23T01:05:21;21.20;79.30
2363;DHT22;64265;51.664;7.626;2024-03-23T01:07:48;21.20;79.30
2363;DHT22;64265;51.664;7.626;2024-03-23T01:10:13;21.20;79.50
2363;DHT22;64265;51.664;7.626;2024-03-23T01:12:41;21.10;79.50
2363;DHT22;64265;51.664;7.626;2024-03-23T01:15:08;21.10;79.60
2363;DHT22;64265;51.664;7.626;2024-03-23T01:17:34;21.10;79.80
2363;DHT22;64265;51.664;7.626;2024-03-23T01:20:00;21.00;79.80
2363;DHT22;64265;51.664;7.626;2024-03-23T01:22:27;21.00;79.90
2363;DHT22;64265;51.664;7.626;2024-03-23T01:24:52;21.00;80.10
2363;DHT22;64265;51.664;7.626;2024-03-23T01:27:19;20.90;80.00
2363;DHT22;64265;51.664;7.626;2024-03-23T01:29:46;20.90;80.10
2363;DHT22;64265;51.664;7.626;2024-03-23T01:32:13;20.90;80.20
2363;DHT22;64265;51.664;7.626;2024-03-23T01:34:39;20.90;80.40
2363;DHT22;64265;51.664;7.626;2024-03-23T01:37:05;20.90;80.40
2363;DHT22;64265;51.664;7.626;2024-03-23T01:39:31;20.90;80.50
2363;DHT22;64265;51.664;7.626;2024-03-23T01:41:58;20.80;80.60
2363;DHT22;64265;51.664;7.626;2024-03-23T01:44:23;20.80;80.60
2363;DHT22;64265;51.664;7.626;2024-03-23T01:46:52;20.80;80.70
2363;DHT22;64265;51.664;7.626;2024-03-23T01:49:17;20.80;80.90
2363;DHT22;64265;51.664;7.626;2024-03-23T01:51:45;20.80;81.00
2363;DHT22;64265;51.664;7.626;2024-03-23T01:54:11;20.70;81.00
2363;DHT22;64265;51.664;7.626;2024-03-23T01:56:37;20.70;81.10
2363;DHT22;64265;51.664;7.626;2024-03-23T01:59:03;20.70;81.40
2363;DHT22;64265;51.664;7.626;2024-03-23T02:01:31;20.70;81.40
2363;DHT22;64265;51.664;7.626;2024-03-23T02:03:58;20.60;81.40
2363;DHT22;64265;51.664;7.626;2024-03-23T02:06:25;20.60;81.60
2363;DHT22;64265;51.664;7.626;2024-03-23T02:08:51;20.60;81.50
2363;DHT22;64265;51.664;7.626;2024-03-23T02:11:18;20.60;81.70
2363;DHT22;64265;51.664;7.626;2024-03-23T02:13:43;20.60;81.80
2363;DHT22;64265;51.664;7.626;2024-03-23T02:16:10;20.50;81.80
2363;DHT22;64265;51.664;7.626;2024-03-23T02:18:36;20.50;81.90
2363;DHT22;64265;51.664;7.626;2024-03-23T02:21:04;20.50;81.90
2363;DHT22;64265;51.664;7.626;2024-03-23T02:23:31;20.50;82.10
2363;DHT22;64265;51.664;7.626;2024-03-23T02:25:58;20.50;82.10
2363;DHT22;64265;51.664;7.626;2024-03-23T02:28:24;20.50;82.20
2363;DHT22;64265;51.664;7.626;2024-03-23T02:30:51;20.50;82.30
2363;DHT22;64265;51.664;7.626;2024-03-23T02:33:17;20.40;82.30
2363;DHT22;64265;51.664;7.626;2024-03-23T02:35:44;20.40;82.40
2363;DHT22;64265;51.664;7.626;2024-03-23T02:38:10;20.40;83.30
2363;DHT22;64265;51.664;7.626;2024-03-23T02:40:38;20.40;83.40
2363;DHT22;64265;51.664;7.626;2024-03-23T02:43:04;20.40;82.80
2363;DHT22;64265;51.664;7.626;2024-03-23T02:45:31;20.40;82.80
2363;DHT22;64265;51.664;7.626;2024-03-23T02:47:57;20.30;82.90
2363;DHT22;64265;51.664;7.626;2024-03-23T02:50:23;20.30;83.00
2363;DHT22;64265;51.664;7.626;2024-03-23T02:52:49;20.30;83.10
2363;DHT22;64265;51.664;7.626;2024-03-23T02:55:16;20.30;83.20
2363;DHT22;64265;51.664;7.626;2024-03-23T02:57:43;20.20;83.20
2363;DHT22;64265;51.664;7.626;2024-03-23T03:00:10;20.20;83.30
2363;DHT22;64265;51.664;7.626;2024-03-23T03:02:36;20.20;83.50
2363;DHT22;64265;51.664;7.626;2024-03-23T03:05:04;20.20;83.60
2363;DHT22;64265;51.664;7.626;2024-03-23T03:07:30;20.20;83.70
2363;DHT22;64265;51.664;7.626;2024-03-23T03:09:57;20.10;84.00
2363;DHT22;64265;51.664;7.626;2024-03-23T03:12:23;20.10;84.30
2363;DHT22;64265;51.664;7.626;2024-03-23T03:14:51;20.00;84.40
2363;DHT22;64265;51.664;7.626;2024-03-23T03:17:16;20.00;84.50
2363;DHT22;64265;51.664;7.626;2024-03-23T03:19:44;20.00;84.60
2363;DHT22;64265;51.664;7.626;2024-03-23T03:22:11;20.00;84.80
2363;DHT22;64265;51.664;7.626;2024-03-23T03:24:37;20.00;84.80
2363;DHT22;64265;51.664;7.626;2024-03-23T03:27:03;20.00;84.90
2363;DHT22;64265;51.664;7.626;2024-03-23T03:29:30;19.90;84.90
2363;DHT22;64265;51.664;7.626;2024-03-23T03:32:02;19.90;85.00
2363;DHT22;64265;51.664;7.626;2024-03-23T03:34:29;19.90;85.10
2363;DHT22;64265;51.664;7.626;2024-03-23T03:36:54;19.90;85.30
2363;DHT22;64265;51.664;7.626;2024-03-23T03:39:21;19.90;85.40
2363;DHT22;64265;51.664;7.626;2024-03-23T03:41:48;19.90;85.50
2363;DHT22;64265;51.664;7.626;2024-03-23T03:44:14;19.90;85.60
2363;DHT22;64265;51.664;7.626;2024-03-23T03:46:40;19.80;85.50
2363;DHT22;64265;51.664;7.626;2024-03-23T03:49:08;19.80;85.60
2363;DHT22;64265;51.664;7.626;2024-03-23T03:51:34;19.80;85.70
2363;DHT22;64265;51.664;7.626;2024-03-23T03:54:01;19.80;85.80
2363;DHT22;64265;51.664;7.626;2024-03-23T03:56:27;19.80;85.90
2363;DHT22;64265;51.664;7.626;2024-03-23T03:58:54;19.80;86.00
2363;DHT22;64265;51.664;7.626;2024-03-23T04:01:20;19.80;86.00
2363;DHT22;64265;51.664;7.626;2024-03-23T04:03:46;19.70;86.00
2363;DHT22;64265;51.664;7.626;2024-03-23T04:06:18;19.70;86.20
2363;DHT22;64265;51.664;7.626;2024-03-23T04:08:45;19.70;86.20
2363;DHT22;64265;51.664;7.626;2024-03-23T04:11:11;19.70;86.30
2363;DHT22;64265;51.664;7.626;2024-03-23T04:13:38;19.70;86.40
2363;DHT22;64265;51.664;7.626;2024-03-23T04:16:04;19.70;86.50
2363;DHT22;64265;51.664;7.626;2024-03-23T04:18:31;19.70;86.60
2363;DHT22;64265;51.664;7.626;2024-03-23T04:20:57;19.70;86.70
2363;DHT22;64265;51.664;7.626;2024-03-23T04:23:25;19.60;86.60
2363;DHT22;64265;51.664;7.626;2024-03-23T04:25:50;19.60;86.70
2363;DHT22;64265;51.664;7.626;2024-03-23T04:28:18;19.70;86.90
2363;DHT22;64265;51.664;7.626;2024-03-23T04:30:44;19.60;86.90
2363;DHT22;64265;51.664;7.626;2024-03-23T04:33:11;19.60;87.00
2363;DHT22;64265;51.664;7.626;2024-03-23T04:35:37;19.60;87.00
2363;DHT22;64265;51.664;7.626;2024-03-23T04:38:03;19.50;87.00
2363;DHT22;64265;51.664;7.626;2024-03-23T04:40:31;19.50;87.10
2363;DHT22;64265;51.664;7.626;2024-03-23T04:42:58;19.50;87.20
2363;DHT22;64265;51.664;7.626;2024-03-23T04:45:26;19.50;87.30
2363;DHT22;64265;51.664;7.626;2024-03-23T04:47:53;19.50;87.40
2363;DHT22;64265;51.664;7.626;2024-03-23T04:50:19;19.50;87.40
2363;DHT22;64265;51.664;7.626;2024-03-23T04:52:46;19.50;87.40
2363;DHT22;64265;51.664;7.626;2024-03-23T04:55:13;19.50;87.50
2363;DHT22;64265;51.664;7.626;2024-03-23T04:57:41;19.50;87.60
2363;DHT22;64265;51.664;7.626;2024-03-23T05:00:07;19.40;87.60
2363;DHT22;64265;51.664;7.626;2024-03-23T05:02:43;19.50;87.80
2363;DHT22;64265;51.664;7.626;2024-03-23T05:05:10;19.40;87.80
2363;DHT22;64265;51.664;7.626;2024-03-23T05:07:35;19.40;87.80
2363;DHT22;64265;51.664;7.626;2024-03-23T05:10:02;19.40;87.90
2363;DHT22;64265;51.664;7.626;2024-03-23T05:12:28;19.40;88.00
2363;DHT22;64265;51.664;7.626;2024-03-23T05:14:57;19.40;88.30
2363;DHT22;64265;51.664;7.626;2024-03-23T05:17:22;19.40;88.50
2363;DHT22;64265;51.664;7.626;2024-03-23T05:19:49;19.30;88.40
2363;DHT22;64265;51.664;7.626;2024-03-23T05:22:15;19.30;88.40
2363;DHT22;64265;51.664;7.626;2024-03-23T05:24:41;19.30;88.50
2363;DHT22;64265;51.664;7.626;2024-03-23T05:27:07;19.30;88.50
2363;DHT22;64265;51.664;7.626;2024-03-23T05:29:34;19.30;88.70
2363;DHT22;64265;51.664;7.626;2024-03-23T05:32:01;19.30;88.60
2363;DHT22;64265;51.664;7.626;2024-03-23T05:34:28;19.30;88.70
2363;DHT22;64265;51.664;7.626;2024-03-23T05:36:54;19.30;88.80
2363;DHT22;64265;51.664;7.626;2024-03-23T05:39:21;19.30;88.90
2363;DHT22;64265;51.664;7.626;2024-03-23T05:41:47;19.20;88.80
2363;DHT22;64265;51.664;7.626;2024-03-23T05:44:14;19.20;88.80
2363;DHT22;64265;51.664;7.626;2024-03-23T05:46:40;19.20;88.90
2363;DHT22;64265;51.664;7.626;2024-03-23T05:49:08;19.30;89.00
2363;DHT22;64265;51.664;7.626;2024-03-23T05:51:34;19.20;88.90
2363;DHT22;64265;51.664;7.626;2024-03-23T05:54:01;19.20;89.00
2363;DHT22;64265;51.664;7.626;2024-03-23T05:56:27;19.20;89.00
2363;DHT22;64265;51.664;7.626;2024-03-23T05:58:53;19.20;89.10
2363;DHT22;64265;51.664;7.626;2024-03-23T06:01:20;19.20;89.20
2363;DHT22;64265;51.664;7.626;2024-03-23T06:03:46;19.20;89.20
2363;DHT22;64265;51.664;7.626;2024-03-23T06:06:14;19.20;89.30
2363;DHT22;64265;51.664;7.626;2024-03-23T06:08:40;19.20;89.30
2363;DHT22;64265;51.664;7.626;2024-03-23T06:11:06;19.20;89.40
2363;DHT22;64265;51.664;7.626;2024-03-23T06:13:32;19.10;89.30
2363;DHT22;64265;51.664;7.626;2024-03-23T06:16:00;19.10;89.30
2363;DHT22;64265;51.664;7.626;2024-03-23T06:18:26;19.10;89.40
2363;DHT22;64265;51.664;7.626;2024-03-23T06:20:53;19.10;89.40
2363;DHT22;64265;51.664;7.626;2024-03-23T06:23:20;19.10;89.50
2363;DHT22;64265;51.664;7.626;2024-03-23T06:25:47;19.10;89.60
2363;DHT22;64265;51.664;7.626;2024-03-23T06:28:12;19.10;89.70
2363;DHT22;64265;51.664;7.626;2024-03-23T06:30:39;19.10;89.90
2363;DHT22;64265;51.664;7.626;2024-03-23T06:33:05;19.10;89.90
2363;DHT22;64265;51.664;7.626;2024-03-23T06:35:32;19.10;89.90
2363;DHT22;64265;51.664;7.626;2024-03-23T06:37:58;19.10;90.00
2363;DHT22;64265;51.664;7.626;2024-03-23T06:40:26;19.10;89.90
2363;DHT22;64265;51.664;7.626;2024-03-23T06:42:51;19.10;90.00
2363;DHT22;64265;51.664;7.626;2024-03-23T06:45:18;19.10;90.30
2363;DHT22;64265;51.664;7.626;2024-03-23T06:47:48;19.10;90.30
2363;DHT22;64265;51.664;7.626;2024-03-23T06:50:15;19.10;90.40
2363;DHT22;64265;51.664;7.626;2024-03-23T06:52:41;19.10;90.40
2363;DHT22;64265;51.664;7.626;2024-03-23T06:55:08;19.00;90.50
2363;DHT22;64265;51.664;7.626;2024-03-23T06:57:35;19.10;90.60
2363;DHT22;64265;51.664;7.626;2024-03-23T07:00:02;19.10;90.60
2363;DHT22;64265;51.664;7.626;2024-03-23T07:02:28;19.10;90.60
2363;DHT22;64265;51.664;7.626;2024-03-23T07:04:55;19.10;90.50
2363;DHT22;64265;51.664;7.626;2024-03-23T07:07:21;19.10;90.30
2363;DHT22;64265;51.664;7.626;2024-03-23T07:09:48;19.00;90.20
2363;DHT22;64265;51.664;7.626;2024-03-23T07:12:14;19.00;90.20
2363;DHT22;64265;51.664;7.626;2024-03-23T07:14:42;19.00;90.10
2363;DHT22;64265;51.664;7.626;2024-03-23T07:17:07;19.00;90.10
2363;DHT22;64265;51.664;7.626;2024-03-23T07:19:34;19.10;90.00
2363;DHT22;64265;51.664;7.626;2024-03-23T07:22:00;19.10;90.00
2363;DHT22;64265;51.664;7.626;2024-03-23T07:24:26;19.10;89.90
2363;DHT22;64265;51.664;7.626;2024-03-23T07:26:52;19.10;89.90
2363;DHT22;64265;51.664;7.626;2024-03-23T07:29:19;19.10;89.80
2363;DHT22;64265;51.664;7.626;2024-03-23T07:31:47;19.20;89.90
2363;DHT22;64265;51.664;7.626;2024-03-23T07:34:13;19.30;90.00
2363;DHT22;64265;51.664;7.626;2024-03-23T07:36:39;19.40;90.00
2363;DHT22;64265;51.664;7.626;2024-03-23T07:39:06;19.50;90.00
2363;DHT22;64265;51.664;7.626;2024-03-23T07:41:33;19.50;90.10
2363;DHT22;64265;51.664;7.626;2024-03-23T07:44:00;19.60;89.30
2363;DHT22;64265;51.664;7.626;2024-03-23T07:46:26;19.70;89.00
2363;DHT22;64265;51.664;7.626;2024-03-23T07:48:54;19.80;88.90
2363;DHT22;64265;51.664;7.626;2024-03-23T07:51:21;19.90;88.70
2363;DHT22;64265;51.664;7.626;2024-03-23T07:53:48;19.90;88.50
2363;DHT22;64265;51.664;7.626;2024-03-23T07:56:15;20.00;88.40
2363;DHT22;64265;51.664;7.626;2024-03-23T07:58:43;20.10;88.30
2363;DHT22;64265;51.664;7.626;2024-03-23T08:01:11;20.10;88.40
2363;DHT22;64265;51.664;7.626;2024-03-23T08:03:39;20.10;88.30
2363;DHT22;64265;51.664;7.626;2024-03-23T08:06:12;20.20;88.30
2363;DHT22;64265;51.664;7.626;2024-03-23T08:08:39;20.30;88.10
2363;DHT22;64265;51.664;7.626;2024-03-23T08:11:05;20.30;87.80
2363;DHT22;64265;51.664;7.626;2024-03-23T08:13:32;20.40;87.60
2363;DHT22;64265;51.664;7.626;2024-03-23T08:15:59;20.40;87.40
2363;DHT22;64265;51.664;7.626;2024-03-23T08:18:26;20.40;87.40
2363;DHT22;64265;51.664;7.626;2024-03-23T08:20:56;20.50;87.40
2363;DHT22;64265;51.664;7.626;2024-03-23T08:23:25;20.40;87.10
2363;DHT22;64265;51.664;7.626;2024-03-23T08:25:51;20.50;87.80
2363;DHT22;64265;51.664;7.626;2024-03-23T08:28:17;20.60;86.80
2363;DHT22;64265;51.664;7.626;2024-03-23T08:30:43;20.60;86.40
2363;DHT22;64265;51.664;7.626;2024-03-23T08:33:10;20.70;86.40
2363;DHT22;64265;51.664;7.626;2024-03-23T08:35:36;20.70;86.10
2363;DHT22;64265;51.664;7.626;2024-03-23T08:38:03;20.70;85.80
2363;DHT22;64265;51.664;7.626;2024-03-23T08:40:30;20.80;85.60
2363;DHT22;64265;51.664;7.626;2024-03-23T08:42:56;20.80;85.30
2363;DHT22;64265;51.664;7.626;2024-03-23T08:45:22;20.90;85.00
2363;DHT22;64265;51.664;7.626;2024-03-23T08:47:49;20.90;84.70
2363;DHT22;64265;51.664;7.626;2024-03-23T08:50:15;21.00;84.30
2363;DHT22;64265;51.664;7.626;2024-03-23T08:52:42;21.00;84.00
2363;DHT22;64265;51.664;7.626;2024-03-23T08:55:08;21.10;83.90
2363;DHT22;64265;51.664;7.626;2024-03-23T08:57:36;21.20;83.60
2363;DHT22;64265;51.664;7.626;2024-03-23T09:00:02;21.20;83.30
2363;DHT22;64265;51.664;7.626;2024-03-23T09:02:31;21.20;83.10
2363;DHT22;64265;51.664;7.626;2024-03-23T09:04:57;21.20;83.00
2363;DHT22;64265;51.664;7.626;2024-03-23T09:07:29;21.20;82.70
2363;DHT22;64265;51.664;7.626;2024-03-23T09:09:55;21.30;82.40
2363;DHT22;64265;51.664;7.626;2024-03-23T09:12:22;21.30;81.90
2363;DHT22;64265;51.664;7.626;2024-03-23T09:14:49;21.40;81.70
2363;DHT22;64265;51.664;7.626;2024-03-23T09:17:16;21.50;81.60
2363;DHT22;64265;51.664;7.626;2024-03-23T09:19:42;21.50;81.30
2363;DHT22;64265;51.664;7.626;2024-03-23T09:22:08;21.60;81.80
2363;DHT22;64265;51.664;7.626;2024-03-23T09:24:34;21.60;80.70
2363;DHT22;64265;51.664;7.626;2024-03-23T09:27:01;21.60;80.50
2363;DHT22;64265;51.664;7.626;2024-03-23T09:29:27;21.70;80.30
2363;DHT22;64265;51.664;7.626;2024-03-23T09:31:55;21.70;79.90
2363;DHT22;64265;51.664;7.626;2024-03-23T09:34:20;21.70;79.80
2363;DHT22;64265;51.664;7.626;2024-03-23T09:36:50;21.80;79.60
2363;DHT22;64265;51.664;7.626;2024-03-23T09:39:16;21.90;79.40
2363;DHT22;64265;51.664;7.626;2024-03-23T09:41:43;21.90;79.10
2363;DHT22;64265;51.664;7.626;2024-03-23T09:44:09;22.00;78.90
2363;DHT22;64265;51.664;7.626;2024-03-23T09:46:36;22.00;78.50
2363;DHT22;64265;51.664;7.626;2024-03-23T09:49:03;22.10;78.90
2363;DHT22;64265;51.664;7.626;2024-03-23T09:51:30;22.20;77.90
2363;DHT22;64265;51.664;7.626;2024-03-23T09:53:56;22.20;70.30
2363;DHT22;64265;51.664;7.626;2024-03-23T09:56:23;22.20;67.60
2363;DHT22;64265;51.664;7.626;2024-03-23T09:58:49;22.10;70.90
2363;DHT22;64265;51.664;7.626;2024-03-23T10:01:16;22.20;72.30
2363;DHT22;64265;51.664;7.626;2024-03-23T10:03:43;22.30;72.90
2363;DHT22;64265;51.664;7.626;2024-03-23T10:06:11;22.30;73.30
2363;DHT22;64265;51.664;7.626;2024-03-23T10:08:37;22.40;73.70
2363;DHT22;64265;51.664;7.626;2024-03-23T10:11:13;22.40;73.90
2363;DHT22;64265;51.664;7.626;2024-03-23T10:13:41;22.50;74.30
2363;DHT22;64265;51.664;7.626;2024-03-23T10:16:08;22.60;74.50
2363;DHT22;64265;51.664;7.626;2024-03-23T10:18:37;22.70;74.50
2363;DHT22;64265;51.664;7.626;2024-03-23T10:21:08;22.70;74.50
2363;DHT22;64265;51.664;7.626;2024-03-23T10:23:36;22.70;74.70
2363;DHT22;64265;51.664;7.626;2024-03-23T10:26:19;22.70;74.90
2363;DHT22;64265;51.664;7.626;2024-03-23T10:28:54;22.80;75.10
2363;DHT22;64265;51.664;7.626;2024-03-23T10:31:22;22.80;75.00
2363;DHT22;64265;51.664;7.626;2024-03-23T10:33:48;22.90;75.10
2363;DHT22;64265;51.664;7.626;2024-03-23T10:36:15;22.90;75.10
2363;DHT22;64265;51.664;7.626;2024-03-23T10:38:43;22.90;74.70
2363;DHT22;64265;51.664;7.626;2024-03-23T10:41:11;23.00;75.10
2363;DHT22;64265;51.664;7.626;2024-03-23T10:43:37;23.00;75.00
2363;DHT22;64265;51.664;7.626;2024-03-23T10:46:04;23.10;75.00
2363;DHT22;64265;51.664;7.626;2024-03-23T10:48:31;23.10;74.90
2363;DHT22;64265;51.664;7.626;2024-03-23T10:50:58;23.10;75.00
2363;DHT22;64265;51.664;7.626;2024-03-23T10:53:26;23.10;74.80
2363;DHT22;64265;51.664;7.626;2024-03-23T10:55:55;23.10;74.70
2363;DHT22;64265;51.664;7.626;2024-03-23T10:58:24;23.20;74.80
2363;DHT22;64265;51.664;7.626;2024-03-23T11:00:51;23.20;74.80
2363;DHT22;64265;51.664;7.626;2024-03-23T11:03:36;23.20;74.80
2363;DHT22;64265;51.664;7.626;2024-03-23T11:06:04;23.20;74.70
2363;DHT22;64265;51.664;7.626;2024-03-23T11:08:31;23.20;74.70
2363;DHT22;64265;51.664;7.626;2024-03-23T11:11:17;23.20;74.60
2363;DHT22;64265;51.664;7.626;2024-03-23T11:13:44;23.20;74.30
2363;DHT22;64265;51.664;7.626;2024-03-23T11:16:15;23.20;74.20
2363;DHT22;64265;51.664;7.626;2024-03-23T11:18:41;23.30;74.40
2363;DHT22;64265;51.664;7.626;2024-03-23T11:21:09;23.30;74.30
2363;DHT22;64265;51.664;7.626;2024-03-23T11:23:35;23.30;74.20
2363;DHT22;64265;51.664;7.626;2024-03-23T11:26:02;23.30;74.10
2363;DHT22;64265;51.664;7.626;2024-03-23T11:28:30;23.30;74.10
2363;DHT22;64265;51.664;7.626;2024-03-23T11:30:57;23.30;74.00
2363;DHT22;64265;51.664;7.626;2024-03-23T11:33:23;23.30;74.00
2363;DHT22;64265;51.664;7.626;2024-03-23T11:35:49;23.30;74.30
2363;DHT22;64265;51.664;7.626;2024-03-23T11:38:17;23.40;74.30
2363;DHT22;64265;51.664;7.626;2024-03-23T11:40:45;23.40;74.20
2363;DHT22;64265;51.664;7.626;2024-03-23T11:43:12;23.40;74.30
2363;DHT22;64265;51.664;7.626;2024-03-23T11:45:43;23.40;74.30
2363;DHT22;64265;51.664;7.626;2024-03-23T11:48:09;23.40;74.30
2363;DHT22;64265;51.664;7.626;2024-03-23T11:50:38;23.40;74.30
2363;DHT22;64265;51.664;7.626;2024-03-23T11:53:14;23.40;74.40
2363;DHT22;64265;51.664;7.626;2024-03-23T11:55:42;23.40;74.30
2363;DHT22;64265;51.664;7.626;2024-03-23T11:58:08;23.40;74.30
2363;DHT22;64265;51.664;7.626;2024-03-23T12:00:35;23.40;74.40
2363;DHT22;64265;51.664;7.626;2024-03-23T12:03:03;23.40;74.20
2363;DHT22;64265;51.664;7.626;2024-03-23T12:05:30;23.40;74.30
2363;DHT22;64265;51.664;7.626;2024-03-23T12:08:15;23.40;74.30
2363;DHT22;64265;51.664;7.626;2024-03-23T12:10:44;23.40;74.40
2363;DHT22;64265;51.664;7.626;2024-03-23T12:13:10;23.40;74.40
2363;DHT22;64265;51.664;7.626;2024-03-23T12:15:37;23.40;74.40
2363;DHT22;64265;51.664;7.626;2024-03-23T12:18:10;23.40;74.50
2363;DHT22;64265;51.664;7.626;2024-03-23T12:20:37;23.40;74.50
2363;DHT22;64265;51.664;7.626;2024-03-23T12:23:10;23.50;74.50
2363;DHT22;64265;51.664;7.626;2024-03-23T12:25:38;23.50;74.50
2363;DHT22;64265;51.664;7.626;2024-03-23T12:28:04;23.50;74.50
2363;DHT22;64265;51.664;7.626;2024-03-23T12:30:33;23.50;74.50
2363;DHT22;64265;51.664;7.626;2024-03-23T12:32:59;23.50;74.50
2363;DHT22;64265;51.664;7.626;2024-03-23T12:35:27;23.50;74.50
2363;DHT22;64265;51.664;7.626;2024-03-23T12:37:53;23.50;74.50
2363;DHT22;64265;51.664;7.626;2024-03-23T12:40:20;23.50;74.40
2363;DHT22;64265;51.664;7.626;2024-03-23T12:42:45;23.50;74.40
2363;DHT22;64265;51.664;7.626;2024-03-23T12:45:12;23.50;74.40
2363;DHT22;64265;51.664;7.626;2024-03-23T12:47:38;23.50;74.30
2363;DHT22;64265;51.664;7.626;2024-03-23T12:50:05;23.50;74.40
2363;DHT22;64265;51.664;7.626;2024-03-23T12:52:32;23.50;74.30
2363;DHT22;64265;51.664;7.626;2024-03-23T12:54:59;23.50;74.30
2363;DHT22;64265;51.664;7.626;2024-03-23T12:57:25;23.50;74.30
2363;DHT22;64265;51.664;7.626;2024-03-23T12:59:53;23.60;74.30
2363;DHT22;64265;51.664;7.626;2024-03-23T13:02:19;23.60;74.30
2363;DHT22;64265;51.664;7.626;2024-03-23T13:04:48;23.60;74.30
2363;DHT22;64265;51.664;7.626;2024-03-23T13:07:14;23.60;74.40
2363;DHT22;64265;51.664;7.626;2024-03-23T13:09:43;23.50;74.30
2363;DHT22;64265;51.664;7.626;2024-03-23T13:12:08;23.50;74.30
2363;DHT22;64265;51.664;7.626;2024-03-23T13:14:35;23.50;74.30
2363;DHT22;64265;51.664;7.626;2024-03-23T13:17:01;23.50;74.30
2363;DHT22;64265;51.664;7.626;2024-03-23T13:19:29;23.60;74.30
2363;DHT22;64265;51.664;7.626;2024-03-23T13:21:56;23.60;74.20
2363;DHT22;64265;51.664;7.626;2024-03-23T13:24:23;23.60;74.20
2363;DHT22;64265;51.664;7.626;2024-03-23T13:26:51;23.60;74.20
2363;DHT22;64265;51.664;7.626;2024-03-23T13:29:18;23.60;74.20
2363;DHT22;64265;51.664;7.626;2024-03-23T13:31:45;20.10;52.70
2363;DHT22;64265;51.664;7.626;2024-03-23T13:34:12;18.50;50.60
2363;DHT22;64265;51.664;7.626;2024-03-23T13:39:07;17.30;70.70
2363;DHT22;64265;51.664;7.626;2024-03-23T13:41:37;17.60;61.20
2363;DHT22;64265;51.664;7.626;2024-03-23T13:44:06;17.70;59.30
2363;DHT22;64265;51.664;7.626;2024-03-23T13:46:32;19.70;65.30
2363;DHT22;64265;51.664;7.626;2024-03-23T13:48:59;21.00;66.40
2363;DHT22;64265;51.664;7.626;2024-03-23T13:51:25;21.60;66.80
2363;DHT22;64265;51.664;7.626;2024-03-23T13:53:53;22.00;66.80
2363;DHT22;64265;51.664;7.626;2024-03-23T13:56:19;22.20;67.00
2363;DHT22;64265;51.664;7.626;2024-03-23T13:58:46;22.30;67.40
2363;DHT22;64265;51.664;7.626;2024-03-23T14:01:14;22.50;68.60
2363;DHT22;64265;51.664;7.626;2024-03-23T14:03:41;22.60;68.20
2363;DHT22;64265;51.664;7.626;2024-03-23T14:06:07;22.60;68.20
2363;DHT22;64265;51.664;7.626;2024-03-23T14:08:34;22.70;68.60
2363;DHT22;64265;51.664;7.626;2024-03-23T14:11:02;22.70;68.80
2363;DHT22;64265;51.664;7.626;2024-03-23T14:13:30;22.80;69.10
2363;DHT22;64265;51.664;7.626;2024-03-23T14:15:56;22.80;69.30
2363;DHT22;64265;51.664;7.626;2024-03-23T14:18:24;22.80;69.40
2363;DHT22;64265;51.664;7.626;2024-03-23T14:20:51;22.80;69.60
2363;DHT22;64265;51.664;7.626;2024-03-23T14:23:18;22.80;69.80
2363;DHT22;64265;51.664;7.626;2024-03-23T14:25:44;22.90;70.00
2363;DHT22;64265;51.664;7.626;2024-03-23T14:28:11;22.90;70.10
2363;DHT22;64265;51.664;7.626;2024-03-23T14:30:40;22.90;70.20
2363;DHT22;64265;51.664;7.626;2024-03-23T14:33:07;22.90;70.40
2363;DHT22;64265;51.664;7.626;2024-03-23T14:35:34;22.90;70.50
2363;DHT22;64265;51.664;7.626;2024-03-23T14:38:01;22.90;70.60
2363;DHT22;64265;51.664;7.626;2024-03-23T14:40:27;22.90;70.60
2363;DHT22;64265;51.664;7.626;2024-03-23T14:42:54;23.00;70.80
2363;DHT22;64265;51.664;7.626;2024-03-23T14:45:20;23.00;70.80
2363;DHT22;64265;51.664;7.626;2024-03-23T14:47:47;23.00;70.90
2363;DHT22;64265;51.664;7.626;2024-03-23T14:50:13;23.00;70.90
2363;DHT22;64265;51.664;7.626;2024-03-23T14:52:44;23.10;71.30
2363;DHT22;64265;51.664;7.626;2024-03-23T14:55:10;23.10;71.30
2363;DHT22;64265;51.664;7.626;2024-03-23T14:57:36;23.10;71.40
2363;DHT22;64265;51.664;7.626;2024-03-23T15:00:06;23.10;71.50
2363;DHT22;64265;51.664;7.626;2024-03-23T15:02:33;23.10;71.60
2363;DHT22;64265;51.664;7.626;2024-03-23T15:04:59;23.10;71.70
2363;DHT22;64265;51.664;7.626;2024-03-23T15:07:29;23.10;71.80
2363;DHT22;64265;51.664;7.626;2024-03-23T15:09:56;23.10;71.80
2363;DHT22;64265;51.664;7.626;2024-03-23T15:12:23;23.10;71.80
2363;DHT22;64265;51.664;7.626;2024-03-23T15:14:49;23.10;72.00
2363;DHT22;64265;51.664;7.626;2024-03-23T15:17:16;23.10;72.20
2363;DHT22;64265;51.664;7.626;2024-03-23T15:19:41;23.10;72.30
2363;DHT22;64265;51.664;7.626;2024-03-23T15:22:08;23.10;72.30
2363;DHT22;64265;51.664;7.626;2024-03-23T15:24:35;23.10;72.30
2363;DHT22;64265;51.664;7.626;2024-03-23T15:27:03;23.20;72.40
2363;DHT22;64265;51.664;7.626;2024-03-23T15:29:29;23.20;72.50
2363;DHT22;64265;51.664;7.626;2024-03-23T15:31:56;23.20;72.60
2363;DHT22;64265;51.664;7.626;2024-03-23T15:34:22;23.20;72.60
2363;DHT22;64265;51.664;7.626;2024-03-23T15:36:49;23.20;72.70
2363;DHT22;64265;51.664;7.626;2024-03-23T15:39:16;23.20;72.80
2363;DHT22;64265;51.664;7.626;2024-03-23T15:41:44;23.20;72.90
2363;DHT22;64265;51.664;7.626;2024-03-23T15:44:11;23.20;73.00
2363;DHT22;64265;51.664;7.626;2024-03-23T15:46:38;23.20;73.00
2363;DHT22;64265;51.664;7.626;2024-03-23T15:49:04;23.20;73.20
2363;DHT22;64265;51.664;7.626;2024-03-23T15:51:31;23.20;73.20
2363;DHT22;64265;51.664;7.626;2024-03-23T15:53:59;23.20;73.30
2363;DHT22;64265;51.664;7.626;2024-03-23T15:56:25;23.20;73.30
2363;DHT22;64265;51.664;7.626;2024-03-23T15:58:51;23.20;73.40
2363;DHT22;64265;51.664;7.626;2024-03-23T16:01:19;23.20;73.60
2363;DHT22;64265;51.664;7.626;2024-03-23T16:03:46;23.20;73.50
2363;DHT22;64265;51.664;7.626;2024-03-23T16:06:14;23.20;73.60
2363;DHT22;64265;51.664;7.626;2024-03-23T16:08:40;23.20;73.60
2363;DHT22;64265;51.664;7.626;2024-03-23T16:11:07;23.20;73.70
2363;DHT22;64265;51.664;7.626;2024-03-23T16:13:34;23.20;73.80
2363;DHT22;64265;51.664;7.626;2024-03-23T16:16:02;23.20;73.80
2363;DHT22;64265;51.664;7.626;2024-03-23T16:18:30;23.20;73.90
2363;DHT22;64265;51.664;7.626;2024-03-23T16:20:58;23.20;73.80
2363;DHT22;64265;51.664;7.626;2024-03-23T16:23:24;23.20;73.90
2363;DHT22;64265;51.664;7.626;2024-03-23T16:25:52;23.20;73.90
2363;DHT22;64265;51.664;7.626;2024-03-23T16:28:25;23.20;73.90
2363;DHT22;64265;51.664;7.626;2024-03-23T16:30:54;23.20;74.10
2363;DHT22;64265;51.664;7.626;2024-03-23T16:33:20;23.20;74.10
2363;DHT22;64265;51.664;7.626;2024-03-23T16:35:59;23.20;74.20
2363;DHT22;64265;51.664;7.626;2024-03-23T16:38:25;23.10;74.10
2363;DHT22;64265;51.664;7.626;2024-03-23T16:40:55;23.20;74.20